sensor_id;sensor_type;location;lat;lon;timestamp;pressure;altitude;pressure_sealevel;temperature;humidity
48874;BME280;66155;46.204;5.220;2023-10-31T00:04:31;97698.94;;;11.48;94.76
48874;BME280;66155;46.204;5.220;2023-10-31T00:09:32;97694.31;;;11.39;95.33
48874;BME280;66155;46.204;5.220;2023-10-31T00:14:32;97694.88;;;11.36;94.06
48874;BME280;66155;46.204;5.220;2023-10-31T00:19:32;97702.97;;;11.35;94.04
48874;BME280;66155;46.204;5.220;2023-10-31T00:24:33;97698.59;;;11.30;95.22
48874;BME280;66155;46.204;5.220;2023-10-31T00:29:33;97696.22;;;11.34;94.08
48874;BME280;66155;46.204;5.220;2023-10-31T00:34:33;97689.88;;;11.40;94.14
48874;BME280;66155;46.204;5.220;2023-10-31T00:39:34;97686.22;;;11.41;93.48
48874;BME280;66155;46.204;5.220;2023-10-31T00:44:34;97691.94;;;11.43;94.07
48874;BME280;66155;46.204;5.220;2023-10-31T00:49:35;97701.94;;;11.36;94.33
48874;BME280;66155;46.204;5.220;2023-10-31T00:54:35;97710.84;;;11.30;94.57
48874;BME280;66155;46.204;5.220;2023-10-31T00:59:37;97724.44;;;11.27;96.74
48874;BME280;66155;46.204;5.220;2023-10-31T01:04:39;97723.63;;;11.26;97.42
48874;BME280;66155;46.204;5.220;2023-10-31T01:09:39;97715.59;;;11.22;97.61
48874;BME280;66155;46.204;5.220;2023-10-31T01:14:40;97722.09;;;11.25;97.26
48874;BME280;66155;46.204;5.220;2023-10-31T01:19:40;97724.47;;;11.21;97.71
48874;BME280;66155;46.204;5.220;2023-10-31T01:24:41;97729.69;;;11.21;98.16
48874;BME280;66155;46.204;5.220;2023-10-31T01:29:41;97736.44;;;11.22;98.21
48874;BME280;66155;46.204;5.220;2023-10-31T01:34:41;97736.19;;;11.24;98.66
48874;BME280;66155;46.204;5.220;2023-10-31T01:39:42;97743.00;;;11.20;99.41
48874;BME280;66155;46.204;5.220;2023-10-31T01:44:42;97754.47;;;11.19;100.00
48874;BME280;66155;46.204;5.220;2023-10-31T01:49:43;97758.59;;;11.25;99.10
48874;BME280;66155;46.204;5.220;2023-10-31T01:54:44;97750.25;;;11.28;97.75
48874;BME280;66155;46.204;5.220;2023-10-31T01:59:44;97753.13;;;11.27;98.98
48874;BME280;66155;46.204;5.220;2023-10-31T02:04:45;97764.06;;;11.29;99.37
48874;BME280;66155;46.204;5.220;2023-10-31T02:09:45;97764.06;;;11.29;100.00
48874;BME280;66155;46.204;5.220;2023-10-31T02:14:46;97779.16;;;11.32;98.24
48874;BME280;66155;46.204;5.220;2023-10-31T02:19:47;97775.44;;;11.38;98.40
48874;BME280;66155;46.204;5.220;2023-10-31T02:24:48;97773.34;;;11.40;97.31
48874;BME280;66155;46.204;5.220;2023-10-31T02:29:48;97771.22;;;11.42;96.61
48874;BME280;66155;46.204;5.220;2023-10-31T02:34:51;97768.63;;;11.42;97.02
48874;BME280;66155;46.204;5.220;2023-10-31T02:39:52;97756.38;;;11.43;96.09
48874;BME280;66155;46.204;5.220;2023-10-31T02:44:53;97760.78;;;11.42;96.08
48874;BME280;66155;46.204;5.220;2023-10-31T02:49:53;97767.94;;;11.31;96.96
48874;BME280;66155;46.204;5.220;2023-10-31T02:54:53;97761.97;;;11.26;96.82
48874;BME280;66155;46.204;5.220;2023-10-31T02:59:54;97759.41;;;11.20;97.29
48874;BME280;66155;46.204;5.220;2023-10-31T03:04:54;97758.94;;;11.13;96.80
48874;BME280;66155;46.204;5.220;2023-10-31T03:09:54;97760.03;;;11.07;96.41
48874;BME280;66155;46.204;5.220;2023-10-31T03:14:55;97759.25;;;11.07;97.05
48874;BME280;66155;46.204;5.220;2023-10-31T03:19:55;97760.31;;;11.06;96.63
48874;BME280;66155;46.204;5.220;2023-10-31T03:24:55;97760.59;;;11.04;96.33
48874;BME280;66155;46.204;5.220;2023-10-31T03:29:56;97768.94;;;11.01;97.38
48874;BME280;66155;46.204;5.220;2023-10-31T03:34:56;97767.66;;;10.98;97.55
48874;BME280;66155;46.204;5.220;2023-10-31T03:39:57;97775.75;;;10.97;97.72
48874;BME280;66155;46.204;5.220;2023-10-31T03:44:57;97770.81;;;10.95;97.30
48874;BME280;66155;46.204;5.220;2023-10-31T03:49:57;97778.34;;;10.97;97.28
48874;BME280;66155;46.204;5.220;2023-10-31T03:54:58;97775.25;;;10.95;97.66
48874;BME280;66155;46.204;5.220;2023-10-31T03:59:58;97775.47;;;10.98;97.06
48874;BME280;66155;46.204;5.220;2023-10-31T04:04:58;97768.44;;;10.99;96.56
48874;BME280;66155;46.204;5.220;2023-10-31T04:09:59;97781.69;;;11.02;95.76
48874;BME280;66155;46.204;5.220;2023-10-31T04:14:59;97777.78;;;11.05;94.40
48874;BME280;66155;46.204;5.220;2023-10-31T04:20:00;97779.34;;;11.06;93.37
48874;BME280;66155;46.204;5.220;2023-10-31T04:25:00;97769.97;;;11.05;93.38
48874;BME280;66155;46.204;5.220;2023-10-31T04:30:01;97762.41;;;11.03;93.03
48874;BME280;66155;46.204;5.220;2023-10-31T04:35:01;97767.41;;;11.00;92.94
48874;BME280;66155;46.204;5.220;2023-10-31T04:40:02;97764.03;;;10.94;92.62
48874;BME280;66155;46.204;5.220;2023-10-31T04:45:02;97772.38;;;10.96;92.95
48874;BME280;66155;46.204;5.220;2023-10-31T04:50:03;97773.69;;;10.94;93.21
48874;BME280;66155;46.204;5.220;2023-10-31T04:55:04;97779.47;;;10.86;94.06
48874;BME280;66155;46.204;5.220;2023-10-31T05:00:05;97779.00;;;10.78;93.96
48874;BME280;66155;46.204;5.220;2023-10-31T05:05:07;97780.06;;;10.72;94.39
48874;BME280;66155;46.204;5.220;2023-10-31T05:10:07;97780.59;;;10.69;94.96
48874;BME280;66155;46.204;5.220;2023-10-31T05:15:08;97768.06;;;10.71;94.76
48874;BME280;66155;46.204;5.220;2023-10-31T05:20:09;97766.50;;;10.75;94.81
48874;BME280;66155;46.204;5.220;2023-10-31T05:25:10;97760.72;;;10.83;94.42
48874;BME280;66155;46.204;5.220;2023-10-31T05:30:12;97768.53;;;10.83;94.11
48874;BME280;66155;46.204;5.220;2023-10-31T05:35:13;97774.81;;;10.82;94.05
48874;BME280;66155;46.204;5.220;2023-10-31T05:40:15;97770.13;;;10.79;93.86
48874;BME280;66155;46.204;5.220;2023-10-31T05:45:16;97775.88;;;10.76;93.64
48874;BME280;66155;46.204;5.220;2023-10-31T05:50:16;97778.22;;;10.73;94.41
48874;BME280;66155;46.204;5.220;2023-10-31T05:55:17;97781.88;;;10.77;93.84
48874;BME280;66155;46.204;5.220;2023-10-31T06:00:18;97776.91;;;10.80;94.16
48874;BME280;66155;46.204;5.220;2023-10-31T06:05:18;97788.84;;;10.87;93.39
48874;BME280;66155;46.204;5.220;2023-10-31T06:10:18;97790.13;;;10.89;93.36
48874;BME280;66155;46.204;5.220;2023-10-31T06:15:19;97803.41;;;10.93;93.03
48874;BME280;66155;46.204;5.220;2023-10-31T06:20:19;97790.09;;;10.94;92.86
48874;BME280;66155;46.204;5.220;2023-10-31T06:25:19;97806.00;;;10.93;93.02
48874;BME280;66155;46.204;5.220;2023-10-31T06:30:20;97806.78;;;10.93;93.08
48874;BME280;66155;46.204;5.220;2023-10-31T06:35:22;97814.59;;;10.93;92.32
48874;BME280;66155;46.204;5.220;2023-10-31T06:40:24;97822.44;;;10.93;92.86
48874;BME280;66155;46.204;5.220;2023-10-31T06:45:25;97827.63;;;10.93;93.26
48874;BME280;66155;46.204;5.220;2023-10-31T06:50:25;97825.78;;;10.99;93.12
48874;BME280;66155;46.204;5.220;2023-10-31T06:55:26;97835.44;;;10.98;93.48
48874;BME280;66155;46.204;5.220;2023-10-31T07:00:27;97854.19;;;11.00;93.45
48874;BME280;66155;46.204;5.220;2023-10-31T07:05:27;97854.69;;;11.02;93.38
48874;BME280;66155;46.204;5.220;2023-10-31T07:10:27;97853.91;;;11.02;93.20
48874;BME280;66155;46.204;5.220;2023-10-31T07:15:28;97856.00;;;11.00;93.38
48874;BME280;66155;46.204;5.220;2023-10-31T07:20:28;97859.38;;;11.00;93.38
48874;BME280;66155;46.204;5.220;2023-10-31T07:25:29;97866.94;;;11.02;92.94
48874;BME280;66155;46.204;5.220;2023-10-31T07:30:29;97874.00;;;11.01;93.18
48874;BME280;66155;46.204;5.220;2023-10-31T07:35:30;97870.31;;;11.08;92.43
48874;BME280;66155;46.204;5.220;2023-10-31T07:40:32;97878.13;;;11.08;92.27
48874;BME280;66155;46.204;5.220;2023-10-31T07:45:32;97875.75;;;11.11;92.01
48874;BME280;66155;46.204;5.220;2023-10-31T07:50:33;97868.44;;;11.13;91.49
48874;BME280;66155;46.204;5.220;2023-10-31T07:55:34;97883.03;;;11.19;91.19
48874;BME280;66155;46.204;5.220;2023-10-31T08:00:35;97885.88;;;11.18;90.13
48874;BME280;66155;46.204;5.220;2023-10-31T08:05:36;97896.03;;;11.25;91.06
48874;BME280;66155;46.204;5.220;2023-10-31T08:10:36;97896.50;;;11.32;90.79
48874;BME280;66155;46.204;5.220;2023-10-31T08:15:37;97898.53;;;11.40;90.35
48874;BME280;66155;46.204;5.220;2023-10-31T08:20:37;97901.06;;;11.50;90.13
48874;BME280;66155;46.204;5.220;2023-10-31T08:25:40;97901.81;;;11.56;89.25
48874;BME280;66155;46.204;5.220;2023-10-31T08:30:40;97901.28;;;11.59;88.48
48874;BME280;66155;46.204;5.220;2023-10-31T08:35:41;97902.28;;;11.63;88.12
48874;BME280;66155;46.204;5.220;2023-10-31T08:40:43;97916.31;;;11.72;87.51
48874;BME280;66155;46.204;5.220;2023-10-31T08:45:43;97923.59;;;11.75;87.00
48874;BME280;66155;46.204;5.220;2023-10-31T08:50:44;97931.09;;;11.87;86.53
48874;BME280;66155;46.204;5.220;2023-10-31T08:55:45;97916.66;;;12.00;86.06
48874;BME280;66155;46.204;5.220;2023-10-31T09:00:45;97921.59;;;12.02;85.11
48874;BME280;66155;46.204;5.220;2023-10-31T09:05:45;97936.31;;;11.92;84.99
48874;BME280;66155;46.204;5.220;2023-10-31T09:10:46;97940.53;;;11.83;84.98
48874;BME280;66155;46.204;5.220;2023-10-31T09:15:46;97941.28;;;11.84;85.13
48874;BME280;66155;46.204;5.220;2023-10-31T09:20:47;97933.47;;;11.84;85.27
48874;BME280;66155;46.204;5.220;2023-10-31T09:25:47;97938.09;;;11.92;85.32
48874;BME280;66155;46.204;5.220;2023-10-31T09:30:48;97938.88;;;11.97;85.85
48874;BME280;66155;46.204;5.220;2023-10-31T09:35:48;97947.97;;;12.00;86.38
48874;BME280;66155;46.204;5.220;2023-10-31T09:40:49;97956.03;;;12.04;86.79
48874;BME280;66155;46.204;5.220;2023-10-31T09:45:51;97967.53;;;12.03;86.34
48874;BME280;66155;46.204;5.220;2023-10-31T09:50:52;97973.28;;;12.05;86.51
48874;BME280;66155;46.204;5.220;2023-10-31T09:55:53;98002.50;;;12.07;86.62
48874;BME280;66155;46.204;5.220;2023-10-31T10:00:54;98018.16;;;12.07;86.63
48874;BME280;66155;46.204;5.220;2023-10-31T10:05:55;98034.56;;;12.12;87.47
48874;BME280;66155;46.204;5.220;2023-10-31T10:10:55;98053.13;;;12.11;87.59
48874;BME280;66155;46.204;5.220;2023-10-31T10:15:56;98047.09;;;12.15;88.24
48874;BME280;66155;46.204;5.220;2023-10-31T10:21:04;98057.78;;;12.19;88.55
48874;BME280;66155;46.204;5.220;2023-10-31T10:26:05;98071.34;;;12.21;88.69
48874;BME280;66155;46.204;5.220;2023-10-31T10:31:05;98070.75;;;12.29;88.22
48874;BME280;66155;46.204;5.220;2023-10-31T10:36:09;98079.31;;;12.40;87.93
48874;BME280;66155;46.204;5.220;2023-10-31T10:41:12;98082.06;;;12.54;86.48
48874;BME280;66155;46.204;5.220;2023-10-31T10:46:17;98088.72;;;12.70;85.59
48874;BME280;66155;46.204;5.220;2023-10-31T10:51:49;98102.09;;;12.93;84.52
48874;BME280;66155;46.204;5.220;2023-10-31T10:56:55;98102.75;;;13.09;83.53
48874;BME280;66155;46.204;5.220;2023-10-31T11:02:00;98107.88;;;13.19;81.22
48874;BME280;66155;46.204;5.220;2023-10-31T11:07:02;98115.28;;;13.41;81.93
48874;BME280;66155;46.204;5.220;2023-10-31T11:12:02;98130.53;;;13.58;81.28
48874;BME280;66155;46.204;5.220;2023-10-31T11:17:14;98129.69;;;13.63;80.69
48874;BME280;66155;46.204;5.220;2023-10-31T11:22:23;98134.72;;;13.59;81.45
48874;BME280;66155;46.204;5.220;2023-10-31T11:27:23;98147.72;;;13.40;81.72
48874;BME280;66155;46.204;5.220;2023-10-31T11:32:26;98160.97;;;13.20;86.16
48874;BME280;66155;46.204;5.220;2023-10-31T11:37:32;98169.25;;;13.03;87.17
48874;BME280;66155;46.204;5.220;2023-10-31T11:42:36;98180.25;;;13.00;88.50
48874;BME280;66155;46.204;5.220;2023-10-31T11:48:05;98207.78;;;12.92;89.83
48874;BME280;66155;46.204;5.220;2023-10-31T11:53:09;98215.19;;;12.80;89.91
48874;BME280;66155;46.204;5.220;2023-10-31T12:03:20;98265.44;;;12.61;91.91
48874;BME280;66155;46.204;5.220;2023-10-31T12:08:41;98262.34;;;12.59;91.74
48874;BME280;66155;46.204;5.220;2023-10-31T12:13:52;98256.88;;;12.55;94.33
48874;BME280;66155;46.204;5.220;2023-10-31T12:18:57;98255.06;;;12.56;94.22
48874;BME280;66155;46.204;5.220;2023-10-31T12:24:03;98256.09;;;12.55;94.02
48874;BME280;66155;46.204;5.220;2023-10-31T12:29:09;98259.97;;;12.58;94.96
48874;BME280;66155;46.204;5.220;2023-10-31T12:34:10;98258.47;;;12.96;94.11
48874;BME280;66155;46.204;5.220;2023-10-31T12:39:11;98260.63;;;13.82;95.25
48874;BME280;66155;46.204;5.220;2023-10-31T12:44:16;98270.63;;;14.47;93.55
48874;BME280;66155;46.204;5.220;2023-10-31T12:49:19;98258.75;;;15.45;96.80
48874;BME280;66155;46.204;5.220;2023-10-31T12:54:27;98272.53;;;16.39;99.93
48874;BME280;66155;46.204;5.220;2023-10-31T12:59:28;98272.69;;;16.70;99.72
48874;BME280;66155;46.204;5.220;2023-10-31T13:04:32;98277.03;;;16.38;98.76
48874;BME280;66155;46.204;5.220;2023-10-31T13:09:35;98299.03;;;16.01;99.18
48874;BME280;66155;46.204;5.220;2023-10-31T13:14:37;98294.38;;;15.65;94.65
48874;BME280;66155;46.204;5.220;2023-10-31T13:19:39;98278.38;;;15.47;96.25
48874;BME280;66155;46.204;5.220;2023-10-31T13:24:39;98281.59;;;15.44;95.96
48874;BME280;66155;46.204;5.220;2023-10-31T13:29:40;98280.63;;;15.87;96.47
48874;BME280;66155;46.204;5.220;2023-10-31T13:34:41;98284.34;;;16.91;99.73
48874;BME280;66155;46.204;5.220;2023-10-31T13:39:41;98300.50;;;18.07;100.00
48874;BME280;66155;46.204;5.220;2023-10-31T13:44:42;98309.38;;;19.12;100.00
48874;BME280;66155;46.204;5.220;2023-10-31T13:49:42;98324.47;;;19.93;100.00
48874;BME280;66155;46.204;5.220;2023-10-31T13:54:43;98336.50;;;20.50;100.00
48874;BME280;66155;46.204;5.220;2023-10-31T13:59:43;98350.09;;;21.12;100.00
48874;BME280;66155;46.204;5.220;2023-10-31T14:04:44;98337.09;;;20.86;98.54
48874;BME280;66155;46.204;5.220;2023-10-31T14:09:44;98352.78;;;20.31;100.00
48874;BME280;66155;46.204;5.220;2023-10-31T14:14:45;98353.47;;;20.11;100.00
48874;BME280;66155;46.204;5.220;2023-10-31T14:19:48;98348.63;;;20.51;100.00
48874;BME280;66155;46.204;5.220;2023-10-31T14:24:48;98362.66;;;21.03;100.00
48874;BME280;66155;46.204;5.220;2023-10-31T14:29:48;98358.38;;;20.68;100.00
48874;BME280;66155;46.204;5.220;2023-10-31T14:34:49;98354.97;;;19.65;100.00
48874;BME280;66155;46.204;5.220;2023-10-31T14:39:49;98355.84;;;18.47;97.23
48874;BME280;66155;46.204;5.220;2023-10-31T14:44:51;98342.13;;;17.64;90.47
48874;BME280;66155;46.204;5.220;2023-10-31T14:49:52;98347.22;;;17.16;90.87
48874;BME280;66155;46.204;5.220;2023-10-31T14:54:53;98350.78;;;16.69;92.31
48874;BME280;66155;46.204;5.220;2023-10-31T14:59:53;98357.16;;;16.41;93.62
48874;BME280;66155;46.204;5.220;2023-10-31T15:04:53;98359.38;;;16.20;89.44
48874;BME280;66155;46.204;5.220;2023-10-31T15:09:54;98354.34;;;16.37;89.32
48874;BME280;66155;46.204;5.220;2023-10-31T15:14:54;98346.53;;;16.32;88.19
48874;BME280;66155;46.204;5.220;2023-10-31T15:19:55;98343.03;;;16.37;86.63
48874;BME280;66155;46.204;5.220;2023-10-31T15:24:55;98346.16;;;16.39;84.55
48874;BME280;66155;46.204;5.220;2023-10-31T15:29:56;98354.72;;;16.30;82.21
48874;BME280;66155;46.204;5.220;2023-10-31T15:34:56;98343.91;;;16.32;81.96
48874;BME280;66155;46.204;5.220;2023-10-31T15:39:56;98357.03;;;16.18;81.02
48874;BME280;66155;46.204;5.220;2023-10-31T15:44:58;98351.22;;;16.21;81.35
48874;BME280;66155;46.204;5.220;2023-10-31T15:50:00;98364.63;;;16.20;80.93
48874;BME280;66155;46.204;5.220;2023-10-31T15:55:01;98360.94;;;16.07;80.14
48874;BME280;66155;46.204;5.220;2023-10-31T16:00:02;98357.41;;;15.98;80.83
48874;BME280;66155;46.204;5.220;2023-10-31T16:05:03;98361.50;;;15.71;80.27
48874;BME280;66155;46.204;5.220;2023-10-31T16:10:05;98369.41;;;15.52;81.01
48874;BME280;66155;46.204;5.220;2023-10-31T16:15:06;98362.84;;;15.16;81.72
48874;BME280;66155;46.204;5.220;2023-10-31T16:20:07;98372.41;;;14.88;81.82
48874;BME280;66155;46.204;5.220;2023-10-31T16:25:07;98375.13;;;14.59;82.66
48874;BME280;66155;46.204;5.220;2023-10-31T16:30:08;98376.16;;;14.34;82.92
48874;BME280;66155;46.204;5.220;2023-10-31T16:35:10;98386.34;;;14.11;82.96
48874;BME280;66155;46.204;5.220;2023-10-31T16:40:11;98376.06;;;13.85;83.81
48874;BME280;66155;46.204;5.220;2023-10-31T16:45:12;98380.16;;;13.67;83.23
48874;BME280;66155;46.204;5.220;2023-10-31T16:50:12;98393.06;;;13.54;83.57
48874;BME280;66155;46.204;5.220;2023-10-31T16:55:13;98388.72;;;13.39;83.72
48874;BME280;66155;46.204;5.220;2023-10-31T17:00:13;98393.25;;;13.23;86.13
48874;BME280;66155;46.204;5.220;2023-10-31T17:05:14;98387.06;;;13.08;84.77
48874;BME280;66155;46.204;5.220;2023-10-31T17:10:15;98394.94;;;12.98;86.28
48874;BME280;66155;46.204;5.220;2023-10-31T17:15:15;98408.06;;;12.88;85.55
48874;BME280;66155;46.204;5.220;2023-10-31T17:20:16;98408.63;;;12.80;85.89
48874;BME280;66155;46.204;5.220;2023-10-31T17:25:18;98415.72;;;12.74;86.10
48874;BME280;66155;46.204;5.220;2023-10-31T17:30:19;98420.94;;;12.69;87.50
48874;BME280;66155;46.204;5.220;2023-10-31T17:35:19;98428.28;;;12.67;87.34
48874;BME280;66155;46.204;5.220;2023-10-31T17:40:20;98419.13;;;12.64;85.99
48874;BME280;66155;46.204;5.220;2023-10-31T17:45:22;98423.84;;;12.57;86.57
48874;BME280;66155;46.204;5.220;2023-10-31T17:50:24;98425.97;;;12.50;87.04
48874;BME280;66155;46.204;5.220;2023-10-31T17:55:25;98429.09;;;12.42;86.66
48874;BME280;66155;46.204;5.220;2023-10-31T18:00:26;98430.16;;;12.35;86.12
48874;BME280;66155;46.204;5.220;2023-10-31T18:05:27;98440.38;;;12.27;87.17
48874;BME280;66155;46.204;5.220;2023-10-31T18:10:30;98442.22;;;12.16;87.95
48874;BME280;66155;46.204;5.220;2023-10-31T18:15:31;98436.47;;;12.09;87.69
48874;BME280;66155;46.204;5.220;2023-10-31T18:20:32;98436.47;;;12.09;87.13
48874;BME280;66155;46.204;5.220;2023-10-31T18:25:33;98441.19;;;12.12;87.08
48874;BME280;66155;46.204;5.220;2023-10-31T18:30:33;98441.44;;;12.15;87.30
48874;BME280;66155;46.204;5.220;2023-10-31T18:35:33;98447.69;;;12.14;86.37
48874;BME280;66155;46.204;5.220;2023-10-31T18:40:34;98443.53;;;12.08;86.54
48874;BME280;66155;46.204;5.220;2023-10-31T18:45:34;98441.44;;;12.05;86.08
48874;BME280;66155;46.204;5.220;2023-10-31T18:50:35;98438.03;;;12.00;87.51
48874;BME280;66155;46.204;5.220;2023-10-31T18:55:35;98446.91;;;11.98;87.46
48874;BME280;66155;46.204;5.220;2023-10-31T19:00:36;98442.19;;;12.01;87.45
48874;BME280;66155;46.204;5.220;2023-10-31T19:05:36;98439.06;;;11.98;86.80
48874;BME280;66155;46.204;5.220;2023-10-31T19:10:36;98427.34;;;11.96;87.36
48874;BME280;66155;46.204;5.220;2023-10-31T19:15:37;98425.00;;;11.94;86.73
48874;BME280;66155;46.204;5.220;2023-10-31T19:20:37;98427.59;;;11.94;87.07
48874;BME280;66155;46.204;5.220;2023-10-31T19:25:38;98433.06;;;11.93;86.67
48874;BME280;66155;46.204;5.220;2023-10-31T19:30:39;98428.63;;;11.83;87.06
48874;BME280;66155;46.204;5.220;2023-10-31T19:35:40;98425.75;;;11.74;87.09
48874;BME280;66155;46.204;5.220;2023-10-31T19:40:40;98427.03;;;11.67;87.54
48874;BME280;66155;46.204;5.220;2023-10-31T19:45:41;98419.44;;;11.60;87.31
48874;BME280;66155;46.204;5.220;2023-10-31T19:50:43;98419.72;;;11.53;87.42
48874;BME280;66155;46.204;5.220;2023-10-31T19:55:43;98412.91;;;11.47;87.90
48874;BME280;66155;46.204;5.220;2023-10-31T20:00:44;98424.13;;;11.43;87.04
48874;BME280;66155;46.204;5.220;2023-10-31T20:05:44;98429.34;;;11.37;87.05
48874;BME280;66155;46.204;5.220;2023-10-31T20:10:45;98419.66;;;11.33;86.61
48874;BME280;66155;46.204;5.220;2023-10-31T20:15:46;98418.09;;;11.27;87.05
48874;BME280;66155;46.204;5.220;2023-10-31T20:20:49;98407.66;;;11.21;86.85
48874;BME280;66155;46.204;5.220;2023-10-31T20:25:50;98409.47;;;11.16;87.07
48874;BME280;66155;46.204;5.220;2023-10-31T20:30:51;98404.47;;;11.09;87.82
48874;BME280;66155;46.204;5.220;2023-10-31T20:35:52;98399.25;;;11.04;88.77
48874;BME280;66155;46.204;5.220;2023-10-31T20:40:53;98395.56;;;10.95;89.05
48874;BME280;66155;46.204;5.220;2023-10-31T20:45:53;98401.00;;;10.88;89.06
48874;BME280;66155;46.204;5.220;2023-10-31T20:50:54;98398.09;;;10.79;89.16
48874;BME280;66155;46.204;5.220;2023-10-31T20:55:55;98398.09;;;10.74;89.48
48874;BME280;66155;46.204;5.220;2023-10-31T21:00:55;98398.06;;;10.69;89.10
48874;BME280;66155;46.204;5.220;2023-10-31T21:05:58;98409.75;;;10.61;89.78
48874;BME280;66155;46.204;5.220;2023-10-31T21:10:59;98408.69;;;10.57;89.12
48874;BME280;66155;46.204;5.220;2023-10-31T21:15:59;98397.75;;;10.55;89.20
48874;BME280;66155;46.204;5.220;2023-10-31T21:21:00;98403.47;;;10.52;90.11
48874;BME280;66155;46.204;5.220;2023-10-31T21:26:00;98407.91;;;10.52;91.06
48874;BME280;66155;46.204;5.220;2023-10-31T21:31:00;98397.16;;;10.48;91.33
48874;BME280;66155;46.204;5.220;2023-10-31T21:36:01;98390.38;;;10.42;90.95
48874;BME280;66155;46.204;5.220;2023-10-31T21:41:01;98400.50;;;10.38;90.15
48874;BME280;66155;46.204;5.220;2023-10-31T21:46:02;98396.53;;;10.31;90.93
48874;BME280;66155;46.204;5.220;2023-10-31T21:51:04;98394.16;;;10.24;90.43
48874;BME280;66155;46.204;5.220;2023-10-31T21:56:05;98386.06;;;10.20;90.42
48874;BME280;66155;46.204;5.220;2023-10-31T22:01:05;98381.09;;;10.19;89.95
48874;BME280;66155;46.204;5.220;2023-10-31T22:06:06;98387.03;;;10.14;90.22
48874;BME280;66155;46.204;5.220;2023-10-31T22:11:06;98385.75;;;10.12;90.54
48874;BME280;66155;46.204;5.220;2023-10-31T22:16:07;98370.63;;;10.08;90.29
48874;BME280;66155;46.204;5.220;2023-10-31T22:21:08;98367.25;;;10.08;90.56
48874;BME280;66155;46.204;5.220;2023-10-31T22:26:10;98359.19;;;10.09;90.46
48874;BME280;66155;46.204;5.220;2023-10-31T22:31:11;98353.75;;;10.16;90.90
48874;BME280;66155;46.204;5.220;2023-10-31T22:36:12;98359.25;;;10.25;89.37
48874;BME280;66155;46.204;5.220;2023-10-31T22:41:12;98349.44;;;10.32;89.35
48874;BME280;66155;46.204;5.220;2023-10-31T22:46:13;98340.09;;;10.36;88.80
48874;BME280;66155;46.204;5.220;2023-10-31T22:51:13;98332.28;;;10.36;89.34
48874;BME280;66155;46.204;5.220;2023-10-31T22:56:14;98337.75;;;10.35;88.95
48874;BME280;66155;46.204;5.220;2023-10-31T23:01:14;98345.75;;;10.28;88.52
48874;BME280;66155;46.204;5.220;2023-10-31T23:06:16;98352.47;;;10.19;89.07
48874;BME280;66155;46.204;5.220;2023-10-31T23:11:16;98342.00;;;10.14;89.08
48874;BME280;66155;46.204;5.220;2023-10-31T23:16:17;98338.84;;;10.06;89.68
48874;BME280;66155;46.204;5.220;2023-10-31T23:21:17;98336.22;;;10.01;89.10
48874;BME280;66155;46.204;5.220;2023-10-31T23:26:18;98335.41;;;9.96;89.92
48874;BME280;66155;46.204;5.220;2023-10-31T23:31:18;98327.56;;;9.90;89.67
48874;BME280;66155;46.204;5.220;2023-10-31T23:36:18;98313.75;;;9.85;89.91
48874;BME280;66155;46.204;5.220;2023-10-31T23:41:19;98306.44;;;9.82;89.76
48874;BME280;66155;46.204;5.220;2023-10-31T23:46:20;98306.91;;;9.79;90.38
48874;BME280;66155;46.204;5.220;2023-10-31T23:51:21;98298.81;;;9.75;90.70
48874;BME280;66155;46.204;5.220;2023-10-31T23:56:21;98288.41;;;9.70;91.02
